createdAt,value
2018-12-04T00:02:15.127Z,0.30
2018-12-04T00:04:41.440Z,0.70
2018-12-04T00:07:16.867Z,0.47
2018-12-04T00:09:43.641Z,0.50
2018-12-04T00:12:10.714Z,0.50
2018-12-04T00:14:37.085Z,0.53
2018-12-04T00:17:03.725Z,0.20
2018-12-04T00:19:30.348Z,0.40
2018-12-04T00:21:56.992Z,0.20
2018-12-04T00:24:23.301Z,0.50
2018-12-04T00:26:49.569Z,0.10
2018-12-04T00:29:15.893Z,0.37
2018-12-04T00:31:42.582Z,0.30
2018-12-04T00:34:09.519Z,0.30
2018-12-04T00:36:36.423Z,0.57
2018-12-04T00:39:04.859Z,0.20
2018-12-04T00:41:32.100Z,0.30
2018-12-04T00:43:59.412Z,0.20
2018-12-04T00:46:26.339Z,0.30
2018-12-04T00:48:59.890Z,0.53
2018-12-04T00:51:26.972Z,0.33
2018-12-04T00:53:53.966Z,0.20
2018-12-04T00:56:20.794Z,0.20
2018-12-04T00:58:47.560Z,0.37
2018-12-04T01:01:14.554Z,0.20
2018-12-04T01:03:41.240Z,0.30
2018-12-04T01:06:08.022Z,0.50
2018-12-04T01:08:34.788Z,0.20
2018-12-04T01:11:01.774Z,0.30
2018-12-04T01:13:28.952Z,0.17
2018-12-04T01:15:56.551Z,0.30
2018-12-04T01:18:24.581Z,0.50
2018-12-04T01:20:51.596Z,0.33
2018-12-04T01:23:19.828Z,0.40
2018-12-04T01:25:47.681Z,0.27
2018-12-04T01:28:16.968Z,0.47
2018-12-04T01:30:44.906Z,0.13
2018-12-04T01:33:12.235Z,0.20
2018-12-04T01:35:39.548Z,0.20
2018-12-04T01:38:06.808Z,0.30
2018-12-04T01:40:33.768Z,0.13
2018-12-04T01:43:00.463Z,0.13
2018-12-04T01:45:26.740Z,0.20
2018-12-04T01:47:53.014Z,0.40
2018-12-04T01:50:19.307Z,0.30
2018-12-04T01:52:45.963Z,0.40
2018-12-04T01:55:12.612Z,0.20
2018-12-04T01:57:39.269Z,0.23
2018-12-04T02:00:05.884Z,0.30
2018-12-04T02:02:32.528Z,0.20
2018-12-04T02:04:58.805Z,0.30
2018-12-04T02:07:25.438Z,0.30
2018-12-04T02:09:52.066Z,0.20
2018-12-04T02:12:18.361Z,0.60
2018-12-04T02:14:44.643Z,0.20
2018-12-04T02:17:11.277Z,0.30
2018-12-04T02:19:37.920Z,0.40
2018-12-04T02:22:04.241Z,0.60
2018-12-04T02:24:30.540Z,0.30
2018-12-04T02:26:57.083Z,0.60
2018-12-04T02:29:23.759Z,0.27
2018-12-04T02:31:50.059Z,0.73
2018-12-04T02:34:16.690Z,0.40
2018-12-04T02:36:43.336Z,0.57
2018-12-04T02:39:09.960Z,0.30
2018-12-04T02:41:36.242Z,0.40
2018-12-04T02:44:02.684Z,0.60
2018-12-04T02:46:28.990Z,0.60
2018-12-04T02:48:55.411Z,0.53
2018-12-04T02:51:22.060Z,0.50
2018-12-04T02:53:48.821Z,0.37
2018-12-04T02:56:15.455Z,0.50
2018-12-04T02:58:41.752Z,0.50
2018-12-04T03:01:08.486Z,0.30
2018-12-04T03:03:35.126Z,0.73
2018-12-04T03:06:01.766Z,0.50
2018-12-04T03:08:28.396Z,0.50
2018-12-04T03:10:55.040Z,0.37
2018-12-04T03:13:21.668Z,0.67
2018-12-04T03:15:48.344Z,0.33
2018-12-04T03:18:14.983Z,0.50
2018-12-04T03:20:41.616Z,0.20
2018-12-04T03:23:08.263Z,0.60
2018-12-04T03:25:34.574Z,0.50
2018-12-04T03:28:01.452Z,0.40
2018-12-04T03:30:27.751Z,0.60
2018-12-04T03:32:54.232Z,0.20
2018-12-04T03:35:20.553Z,0.40
2018-12-04T03:37:47.288Z,0.20
2018-12-04T03:40:13.921Z,0.40
2018-12-04T03:42:40.561Z,0.60
2018-12-04T03:45:07.207Z,0.50
2018-12-04T03:47:33.505Z,0.43
2018-12-04T03:50:00.150Z,0.47
2018-12-04T03:52:26.779Z,0.40
2018-12-04T03:54:53.194Z,0.30
2018-12-04T03:57:19.900Z,0.33
2018-12-04T03:59:46.186Z,0.50
2018-12-04T04:02:12.846Z,0.60
2018-12-04T04:04:39.175Z,0.40
2018-12-04T04:07:05.881Z,0.40
2018-12-04T04:09:32.545Z,0.40
2018-12-04T04:11:59.277Z,0.40
2018-12-04T04:14:25.909Z,0.50
2018-12-04T04:16:52.213Z,0.30
2018-12-04T04:19:18.831Z,0.33
2018-12-04T04:21:45.501Z,0.27
2018-12-04T04:24:12.159Z,0.60
2018-12-04T04:26:38.806Z,0.60
2018-12-04T04:29:05.441Z,0.47
2018-12-04T04:31:31.969Z,0.30
2018-12-04T04:33:58.274Z,0.33
2018-12-04T04:36:25.045Z,0.67
2018-12-04T04:38:51.314Z,0.30
2018-12-04T04:41:18.229Z,0.30
2018-12-04T04:43:44.553Z,0.70
2018-12-04T04:46:11.184Z,0.40
2018-12-04T04:48:37.839Z,0.40
2018-12-04T04:51:04.741Z,0.30
2018-12-04T04:53:31.384Z,0.93
2018-12-04T04:55:57.658Z,0.30
2018-12-04T04:58:23.970Z,0.40
2018-12-04T05:00:50.239Z,0.40
2018-12-04T05:03:16.648Z,0.60
2018-12-04T05:05:43.367Z,0.30
2018-12-04T05:08:09.996Z,0.60
2018-12-04T05:10:36.636Z,0.80
2018-12-04T05:13:03.268Z,0.40
2018-12-04T05:15:29.589Z,0.70
2018-12-04T05:17:56.212Z,0.60
2018-12-04T05:20:22.844Z,0.40
2018-12-04T05:22:49.744Z,0.70
2018-12-04T05:25:16.010Z,0.67
2018-12-04T05:27:43.608Z,0.43
2018-12-04T05:30:09.926Z,0.50
2018-12-04T05:32:36.446Z,0.57
2018-12-04T05:35:03.223Z,0.50
2018-12-04T05:37:29.858Z,0.63
2018-12-04T05:39:56.483Z,0.70
2018-12-04T05:42:22.757Z,4.33
2018-12-04T05:44:49.436Z,5.27
2018-12-04T05:47:16.118Z,3.40
2018-12-04T05:49:42.747Z,1.97
2018-12-04T05:52:09.025Z,1.20
2018-12-04T05:54:35.669Z,1.20
2018-12-04T05:57:02.434Z,0.70
2018-12-04T05:59:29.085Z,0.50
2018-12-04T06:01:55.734Z,0.60
2018-12-04T06:04:22.050Z,0.57
2018-12-04T06:06:48.705Z,0.50
2018-12-04T06:09:14.988Z,0.23
2018-12-04T06:11:41.316Z,0.50
2018-12-04T06:14:07.955Z,3.07
2018-12-04T06:16:34.579Z,0.40
2018-12-04T06:19:01.200Z,0.30
2018-12-04T06:21:27.849Z,0.20
2018-12-04T06:23:54.504Z,0.20
2018-12-04T06:26:21.156Z,0.30
2018-12-04T06:28:47.825Z,0.20
2018-12-04T06:31:14.490Z,0.30
2018-12-04T06:33:41.121Z,0.27
2018-12-04T06:36:07.412Z,0.50
2018-12-04T06:38:33.690Z,0.20
2018-12-04T06:41:00.316Z,0.10
2018-12-04T06:43:26.978Z,0.50
2018-12-04T06:45:53.294Z,0.40
2018-12-04T06:48:19.933Z,0.20
2018-12-04T06:50:46.581Z,0.30
2018-12-04T06:53:13.218Z,0.40
2018-12-04T06:55:39.857Z,0.70
2018-12-04T06:58:06.154Z,0.60
2018-12-04T07:00:32.858Z,0.50
2018-12-04T07:02:59.491Z,0.40
2018-12-04T07:05:26.164Z,0.27
2018-12-04T07:07:52.445Z,0.40
2018-12-04T07:10:19.075Z,0.60
2018-12-04T07:12:45.708Z,0.33
2018-12-04T07:15:12.480Z,0.40
2018-12-04T07:17:39.120Z,0.40
2018-12-04T07:20:06.087Z,0.30
2018-12-04T07:22:32.751Z,0.60
2018-12-04T07:24:59.389Z,0.33
2018-12-04T07:27:26.041Z,0.50
2018-12-04T07:29:52.692Z,0.43
2018-12-04T07:32:19.326Z,0.57
2018-12-04T07:34:45.966Z,0.50
2018-12-04T07:37:12.601Z,0.40
2018-12-04T07:39:39.231Z,0.30
2018-12-04T07:42:05.535Z,1.13
2018-12-04T07:44:32.291Z,0.40
2018-12-04T07:46:58.688Z,0.50
2018-12-04T07:49:25.335Z,0.40
2018-12-04T07:51:51.966Z,0.40
2018-12-04T07:54:18.600Z,0.40
2018-12-04T07:56:45.235Z,0.37
2018-12-04T07:59:11.893Z,0.50
2018-12-04T08:01:38.820Z,0.77
2018-12-04T08:04:05.102Z,0.50
2018-12-04T08:06:31.417Z,0.40
2018-12-04T08:08:57.694Z,0.60
2018-12-04T08:11:24.338Z,0.40
2018-12-04T08:13:51.232Z,0.50
2018-12-04T08:16:17.868Z,0.47
2018-12-04T08:18:44.504Z,0.50
2018-12-04T08:21:11.143Z,0.60
2018-12-04T08:23:43.441Z,0.50
2018-12-04T08:26:10.091Z,0.50
2018-12-04T08:28:37.333Z,0.50
2018-12-04T08:31:03.987Z,0.57
2018-12-04T08:33:30.625Z,3.30
2018-12-04T08:35:57.253Z,0.80
2018-12-04T08:38:23.907Z,0.67
2018-12-04T08:40:50.294Z,0.90
2018-12-04T08:43:16.946Z,0.77
2018-12-04T08:45:43.580Z,0.90
2018-12-04T08:48:10.187Z,0.60
2018-12-04T08:50:36.820Z,0.50
2018-12-04T08:53:04.553Z,0.70
2018-12-04T08:55:31.232Z,0.60
2018-12-04T08:57:57.865Z,0.43
2018-12-04T09:00:24.499Z,0.63
2018-12-04T09:02:50.768Z,0.90
2018-12-04T09:05:17.161Z,0.70
2018-12-04T09:07:43.817Z,0.40
2018-12-04T09:10:10.089Z,0.60
2018-12-04T09:12:36.705Z,0.83
2018-12-04T09:15:03.749Z,0.60
2018-12-04T09:17:30.386Z,0.77
2018-12-04T09:19:57.056Z,0.60
2018-12-04T09:22:23.818Z,0.60
2018-12-04T09:24:50.208Z,0.53
2018-12-04T09:27:16.968Z,0.53
2018-12-04T09:29:43.356Z,0.70
2018-12-04T09:32:09.775Z,0.60
2018-12-04T09:34:36.065Z,0.67
2018-12-04T09:37:02.716Z,0.50
2018-12-04T09:39:29.345Z,1.00
2018-12-04T09:41:56.232Z,0.47
2018-12-04T09:44:22.876Z,0.60
2018-12-04T09:46:49.526Z,0.60
2018-12-04T09:49:15.826Z,0.63
2018-12-04T09:51:42.124Z,0.53
2018-12-04T09:54:08.376Z,0.60
2018-12-04T09:56:35.025Z,0.83
2018-12-04T09:59:01.657Z,0.60
2018-12-04T10:01:28.292Z,0.87
2018-12-04T10:03:54.585Z,0.33
2018-12-04T10:06:21.231Z,0.43
2018-12-04T10:08:47.873Z,0.60
2018-12-04T10:11:14.168Z,0.60
2018-12-04T10:13:40.801Z,0.60
2018-12-04T10:16:07.568Z,0.50
2018-12-04T10:18:34.533Z,0.50
2018-12-04T10:21:01.225Z,0.60
2018-12-04T10:23:27.868Z,0.60
2018-12-04T10:25:54.503Z,0.50
2018-12-04T10:28:21.141Z,0.60
2018-12-04T10:30:53.440Z,0.50
2018-12-04T10:33:19.700Z,0.47
2018-12-04T10:35:46.350Z,0.60
2018-12-04T10:38:12.630Z,0.53
2018-12-04T10:40:39.263Z,0.63
2018-12-04T10:43:06.069Z,0.53
2018-12-04T10:45:32.708Z,0.50
2018-12-04T10:47:58.998Z,0.50
2018-12-04T10:50:25.281Z,0.50
2018-12-04T10:52:51.916Z,0.40
2018-12-04T10:55:18.556Z,0.53
2018-12-04T10:57:45.399Z,0.50
2018-12-04T11:00:16.594Z,0.70
2018-12-04T11:02:44.041Z,0.60
2018-12-04T11:05:10.701Z,0.60
2018-12-04T11:07:37.329Z,0.60
2018-12-04T11:10:04.208Z,0.53
2018-12-04T11:12:30.480Z,0.47
2018-12-04T11:14:57.104Z,0.50
2018-12-04T11:17:23.365Z,0.40
2018-12-04T11:19:49.982Z,0.60
2018-12-04T11:22:16.628Z,0.60
2018-12-04T11:24:43.276Z,0.70
2018-12-04T11:27:09.941Z,0.70
2018-12-04T11:29:36.593Z,0.70
2018-12-04T11:32:03.233Z,0.80
2018-12-04T11:34:29.884Z,0.80
2018-12-04T11:36:56.196Z,0.93
2018-12-04T11:39:22.521Z,0.97
2018-12-04T11:41:49.147Z,1.00
2018-12-04T11:44:15.768Z,0.83
2018-12-04T11:46:42.398Z,0.70
2018-12-04T11:49:09.039Z,0.83
2018-12-04T11:51:35.359Z,0.80
2018-12-04T11:54:01.669Z,0.67
2018-12-04T11:56:27.961Z,1.10
2018-12-04T11:58:54.801Z,0.93
2018-12-04T12:01:26.892Z,0.87
2018-12-04T12:03:53.185Z,0.80
2018-12-04T12:06:19.460Z,0.80
2018-12-04T12:08:46.096Z,0.70
2018-12-04T12:11:12.369Z,0.80
2018-12-04T12:13:39.272Z,0.73
2018-12-04T12:16:05.920Z,0.80
2018-12-04T12:18:32.548Z,0.70
2018-12-04T12:20:59.188Z,0.73
2018-12-04T12:23:25.475Z,0.87
2018-12-04T12:25:51.753Z,0.80
2018-12-04T12:28:18.029Z,1.10
2018-12-04T12:30:44.337Z,0.67
2018-12-04T12:33:10.980Z,1.03
2018-12-04T12:35:37.618Z,0.90
2018-12-04T12:38:04.252Z,0.70
2018-12-04T12:40:30.550Z,0.77
2018-12-04T12:42:57.192Z,1.00
2018-12-04T12:45:23.484Z,0.77
2018-12-04T12:47:50.141Z,1.10
2018-12-04T12:50:16.788Z,0.80
2018-12-04T12:52:44.460Z,1.03
2018-12-04T12:55:11.208Z,0.77
2018-12-04T12:57:37.840Z,0.80
2018-12-04T13:00:05.093Z,1.17
2018-12-04T13:02:31.500Z,0.97
2018-12-04T13:04:58.129Z,1.27
2018-12-04T13:07:24.783Z,1.20
2018-12-04T13:09:51.458Z,1.00
2018-12-04T13:12:17.744Z,0.97
2018-12-04T13:14:44.430Z,1.27
2018-12-04T13:17:10.776Z,0.87
2018-12-04T13:19:37.104Z,1.20
2018-12-04T13:22:03.733Z,1.00
2018-12-04T13:24:30.371Z,1.13
2018-12-04T13:26:56.998Z,1.43
2018-12-04T13:29:23.632Z,1.60
2018-12-04T13:31:50.267Z,1.23
2018-12-04T13:34:17.189Z,1.10
2018-12-04T13:36:43.515Z,1.23
2018-12-04T13:39:09.896Z,1.03
2018-12-04T13:41:36.225Z,1.40
2018-12-04T13:44:03.056Z,1.03
2018-12-04T13:46:30.495Z,1.10
2018-12-04T13:48:56.780Z,1.00
2018-12-04T13:51:23.417Z,1.00
2018-12-04T13:53:50.046Z,1.13
2018-12-04T13:56:16.804Z,1.20
2018-12-04T13:58:43.577Z,1.20
2018-12-04T14:01:09.975Z,1.10
2018-12-04T14:03:36.281Z,1.10
2018-12-04T14:06:02.592Z,1.47
2018-12-04T14:08:28.955Z,1.30
2018-12-04T14:10:56.600Z,1.33
2018-12-04T14:13:23.226Z,1.20
2018-12-04T14:15:49.890Z,1.40
2018-12-04T14:18:16.172Z,1.50
2018-12-04T14:20:42.808Z,1.50
2018-12-04T14:23:09.459Z,1.77
2018-12-04T14:25:35.873Z,1.33
2018-12-04T14:28:02.192Z,1.63
2018-12-04T14:30:28.860Z,1.40
2018-12-04T14:32:55.585Z,1.47
2018-12-04T14:35:22.033Z,1.30
2018-12-04T14:37:48.783Z,0.97
2018-12-04T14:40:15.424Z,1.03
2018-12-04T14:42:42.116Z,0.87
2018-12-04T14:45:08.875Z,0.80
2018-12-04T14:47:35.531Z,1.10
2018-12-04T14:50:02.976Z,0.70
2018-12-04T14:52:29.607Z,1.10
2018-12-04T14:54:55.917Z,1.13
2018-12-04T14:57:22.244Z,1.10
2018-12-04T14:59:48.896Z,1.20
2018-12-04T15:02:15.262Z,0.97
2018-12-04T15:04:41.667Z,1.03
2018-12-04T15:07:08.434Z,1.40
2018-12-04T15:09:35.146Z,1.07
2018-12-04T15:12:02.207Z,1.20
2018-12-04T15:14:28.907Z,0.93
2018-12-04T15:16:55.646Z,1.17
2018-12-04T15:19:22.350Z,0.83
2018-12-04T15:21:48.756Z,1.10
2018-12-04T15:24:22.287Z,0.80
2018-12-04T15:26:48.793Z,1.10
2018-12-04T15:29:15.472Z,1.07
2018-12-04T15:31:41.876Z,1.70
2018-12-04T15:34:08.648Z,1.70
2018-12-04T15:36:35.242Z,1.80
2018-12-04T15:39:02.191Z,1.50
2018-12-04T15:41:29.075Z,2.00
2018-12-04T15:43:55.382Z,2.00
2018-12-04T15:46:22.063Z,2.20
2018-12-04T15:48:48.804Z,1.70
2018-12-04T15:51:15.490Z,1.37
2018-12-04T15:53:42.256Z,1.20
2018-12-04T15:56:08.558Z,1.57
2018-12-04T15:58:34.913Z,1.50
2018-12-04T16:01:01.660Z,1.23
2018-12-04T16:03:28.279Z,1.30
2018-12-04T16:05:54.545Z,1.60
2018-12-04T16:08:21.192Z,2.62
2018-12-04T16:10:47.828Z,1.97
2018-12-04T16:13:14.456Z,2.00
2018-12-04T16:15:41.971Z,1.77
2018-12-04T16:18:08.603Z,1.33
2018-12-04T16:20:36.154Z,1.50
2018-12-04T16:23:02.793Z,1.40
2018-12-04T16:25:29.433Z,1.53
2018-12-04T16:27:56.056Z,2.20
2018-12-04T16:30:23.568Z,2.77
2018-12-04T16:32:50.855Z,1.93
2018-12-04T16:35:17.502Z,1.73
2018-12-04T16:37:44.131Z,2.10
2018-12-04T16:40:10.756Z,2.00
2018-12-04T16:42:37.384Z,2.37
2018-12-04T16:45:04.237Z,2.00
2018-12-04T16:47:31.161Z,4.45
2018-12-04T16:49:57.490Z,4.97
2018-12-04T16:52:23.785Z,4.50
2018-12-04T16:54:50.065Z,4.47
2018-12-04T16:57:16.377Z,4.43
2018-12-04T16:59:42.984Z,3.63
2018-12-04T17:02:09.634Z,3.63
2018-12-04T17:04:36.284Z,3.20
2018-12-04T17:07:02.932Z,2.53
2018-12-04T17:09:29.563Z,2.77
2018-12-04T17:11:55.873Z,2.60
2018-12-04T17:14:22.150Z,2.07
2018-12-04T17:16:48.792Z,2.37
2018-12-04T17:19:15.553Z,2.92
2018-12-04T17:21:42.214Z,2.80
2018-12-04T17:24:08.839Z,2.23
2018-12-04T17:26:35.132Z,2.20
2018-12-04T17:29:01.816Z,2.50
2018-12-04T17:31:28.751Z,2.40
2018-12-04T17:34:02.742Z,2.90
2018-12-04T17:36:29.701Z,3.73
2018-12-04T17:38:57.353Z,4.53
2018-12-04T17:41:23.697Z,4.37
2018-12-04T17:43:50.490Z,4.50
2018-12-04T17:46:17.128Z,3.80
2018-12-04T17:48:43.760Z,3.87
2018-12-04T17:51:10.555Z,3.87
2018-12-04T17:53:37.210Z,3.63
2018-12-04T17:56:03.557Z,3.70
2018-12-04T17:58:30.699Z,3.87
2018-12-04T18:00:57.002Z,4.17
2018-12-04T18:03:23.624Z,5.17
2018-12-04T18:05:50.276Z,4.27
2018-12-04T18:08:16.935Z,4.03
2018-12-04T18:10:43.895Z,3.93
2018-12-04T18:13:10.526Z,4.23
2018-12-04T18:15:37.136Z,3.90
2018-12-04T18:18:03.748Z,3.50
2018-12-04T18:20:30.392Z,3.60
2018-12-04T18:22:56.668Z,3.20
2018-12-04T18:25:23.517Z,3.07
2018-12-04T18:27:50.025Z,3.80
2018-12-04T18:30:16.673Z,4.57
2018-12-04T18:32:42.961Z,3.70
2018-12-04T18:35:09.596Z,4.50
2018-12-04T18:37:36.295Z,5.10
2018-12-04T18:40:03.269Z,4.80
2018-12-04T18:42:29.916Z,4.70
2018-12-04T18:44:57.536Z,5.27
2018-12-04T18:47:24.188Z,5.23
2018-12-04T18:49:50.821Z,4.90
2018-12-04T18:52:17.437Z,4.13
2018-12-04T18:54:44.076Z,4.33
2018-12-04T18:57:10.706Z,4.60
2018-12-04T18:59:37.008Z,4.53
2018-12-04T19:02:03.792Z,3.67
2018-12-04T19:04:30.085Z,3.70
2018-12-04T19:06:56.370Z,4.27
2018-12-04T19:09:23.117Z,4.17
2018-12-04T19:11:49.809Z,5.40
2018-12-04T19:14:16.517Z,4.20
2018-12-04T19:16:43.144Z,4.33
2018-12-04T19:19:10.639Z,4.00
2018-12-04T19:21:36.977Z,4.60
2018-12-04T19:24:03.531Z,4.87
2018-12-04T19:26:31.288Z,4.57
2018-12-04T19:29:00.501Z,4.83
2018-12-04T19:31:28.888Z,4.37
2018-12-04T19:33:56.409Z,4.93
2018-12-04T19:36:23.257Z,3.63
2018-12-04T19:38:50.233Z,4.07
2018-12-04T19:41:17.102Z,3.63
2018-12-04T19:43:43.772Z,10.57
2018-12-04T19:46:10.438Z,10.13
2018-12-04T19:48:37.352Z,7.37
2018-12-04T19:51:04.074Z,6.30
2018-12-04T19:53:30.705Z,6.80
2018-12-04T19:55:57.376Z,5.30
2018-12-04T19:58:23.661Z,4.27
2018-12-04T20:00:50.423Z,4.50
2018-12-04T20:03:17.040Z,4.30
2018-12-04T20:05:43.687Z,3.83
2018-12-04T20:08:10.328Z,4.87
2018-12-04T20:10:36.983Z,4.20
2018-12-04T20:13:03.778Z,4.60
2018-12-04T20:15:30.563Z,3.80
2018-12-04T20:17:57.271Z,5.30
2018-12-04T20:20:23.575Z,6.00
2018-12-04T20:22:50.200Z,6.60
2018-12-04T20:25:16.829Z,5.57
2018-12-04T20:27:43.490Z,5.37
2018-12-04T20:30:10.026Z,5.00
2018-12-04T20:32:36.322Z,5.60
2018-12-04T20:35:04.889Z,4.80
2018-12-04T20:37:31.985Z,4.00
2018-12-04T20:39:58.625Z,5.43
2018-12-04T20:42:25.248Z,5.60
2018-12-04T20:44:51.589Z,5.10
2018-12-04T20:47:18.096Z,5.80
2018-12-04T20:49:44.748Z,5.87
2018-12-04T20:52:11.694Z,5.50
2018-12-04T20:54:37.996Z,5.57
2018-12-04T20:57:04.362Z,9.83
2018-12-04T20:59:31.044Z,6.97
2018-12-04T21:01:57.823Z,6.53
2018-12-04T21:04:24.465Z,9.57
2018-12-04T21:06:51.331Z,8.00
2018-12-04T21:09:17.964Z,11.33
2018-12-04T21:11:44.263Z,8.17
2018-12-04T21:14:10.892Z,7.30
2018-12-04T21:16:37.586Z,6.47
2018-12-04T21:19:04.335Z,5.67
2018-12-04T21:21:30.661Z,4.37
2018-12-04T21:23:57.288Z,4.63
2018-12-04T21:26:23.920Z,4.23
2018-12-04T21:31:59.922Z,4.20
2018-12-04T21:34:32.671Z,4.67
2018-12-04T21:37:05.239Z,4.80
2018-12-04T21:39:35.783Z,4.40
2018-12-04T21:42:04.561Z,4.00
2018-12-04T21:44:37.146Z,4.60
2018-12-04T21:47:10.859Z,4.17
2018-12-04T21:49:37.563Z,4.43
2018-12-04T21:52:03.834Z,4.37
2018-12-04T21:54:30.470Z,4.10
2018-12-04T21:56:57.185Z,4.17
2018-12-04T21:59:23.832Z,4.20
2018-12-04T22:01:51.142Z,4.10
2018-12-04T22:04:18.784Z,4.13
2018-12-04T22:06:46.095Z,3.77
2018-12-04T22:09:12.505Z,4.10
2018-12-04T22:11:38.816Z,4.37
2018-12-04T22:14:05.499Z,6.08
2018-12-04T22:16:32.125Z,5.33
2018-12-04T22:18:58.863Z,4.57
2018-12-04T22:21:25.938Z,4.67
2018-12-04T22:23:52.574Z,5.17
2018-12-04T22:26:19.240Z,5.20
2018-12-04T22:28:45.709Z,3.87
2018-12-04T22:31:12.332Z,4.20
2018-12-04T22:33:38.965Z,4.00
2018-12-04T22:36:05.260Z,4.00
2018-12-04T22:38:31.884Z,4.73
2018-12-04T22:40:58.545Z,4.53
2018-12-04T22:43:25.262Z,3.60
2018-12-04T22:45:51.570Z,4.00
2018-12-04T22:48:18.205Z,4.07
2018-12-04T22:50:44.925Z,4.40
2018-12-04T22:53:11.254Z,4.07
2018-12-04T22:55:37.905Z,4.20
2018-12-04T22:58:04.553Z,4.50
2018-12-04T23:00:37.497Z,4.23
2018-12-04T23:03:04.248Z,4.20
2018-12-04T23:05:30.885Z,4.63
2018-12-04T23:07:57.537Z,4.70
2018-12-04T23:10:24.460Z,4.30
2018-12-04T23:12:51.103Z,4.73
2018-12-04T23:15:17.394Z,4.60
2018-12-04T23:17:44.041Z,4.00
2018-12-04T23:20:10.692Z,4.37
2018-12-04T23:22:37.016Z,4.67
2018-12-04T23:25:04.246Z,3.90
2018-12-04T23:27:30.896Z,3.83
2018-12-04T23:29:57.514Z,4.27
2018-12-04T23:32:23.812Z,3.53
2018-12-04T23:34:50.710Z,4.03
2018-12-04T23:37:17.482Z,4.20
2018-12-04T23:39:44.116Z,3.73
2018-12-04T23:42:10.733Z,4.37
2018-12-04T23:44:37.392Z,4.67
2018-12-04T23:47:03.699Z,4.13
2018-12-04T23:49:30.868Z,3.93
2018-12-04T23:51:57.145Z,3.33
2018-12-04T23:54:23.409Z,4.10
2018-12-04T23:56:50.047Z,3.43
2018-12-04T23:59:16.757Z,4.03
